Nonantum, Massachusetts
Current Conditions -  °F | °C
As of 12:54 AM on Sunday 23 Nov 2014 (Local Time) from KBOS Reporting Station
Overcast Overcast  
Wind Chill: 36°   Ceiling: 17000
Heat Index: 43°   Visibility: 10mi
Dew Point: 22°   Wind: 14mph
Humidity: 43%   Direction: 240°WSW
Pressure: 30.06"   Gusts: NA
Location:  42.35°N, 71.18°W
Report Text: KBOS 230554Z 24012KT 10SM SCT120 BKN170 OVC250 06/M06 A3006 RMK AO2 SLP180 T00611056 10061 20044 51001
Loading
Personal Weather Stations






























Interactive Weather Map New forecast layout! Learn more

10-Day Weather Forecast

Advertisements
Track Severe Weather on mobile